createdAt,value
2022-10-24T03:03:22.996Z,98800.63
2022-10-24T03:05:49.779Z,98808.16
2022-10-24T03:08:16.468Z,98806.94
2022-10-24T03:10:43.113Z,98810.13
2022-10-24T03:13:09.820Z,98813.69
2022-10-24T03:15:36.518Z,98809.31
2022-10-24T03:18:03.177Z,98803.38
2022-10-24T03:20:29.898Z,98814.84
2022-10-24T03:22:56.561Z,98810.88
2022-10-24T03:25:23.233Z,98825.06
2022-10-24T03:27:49.900Z,98812.44
2022-10-24T03:30:16.678Z,98821.91
2022-10-24T03:32:43.703Z,98816.38
2022-10-24T03:35:13.389Z,98815.97
2022-10-24T03:37:41.410Z,98820.31
2022-10-24T03:40:09.542Z,98814.78
2022-10-24T03:42:36.204Z,98821.91
2022-10-24T03:45:03.110Z,98815.63
2022-10-24T03:47:29.719Z,98817.19
2022-10-24T03:49:56.410Z,98808.91
2022-10-24T03:52:23.270Z,98814.44
2022-10-24T03:54:50.044Z,98815.63
2022-10-24T03:57:16.807Z,98822.75
2022-10-24T03:59:43.631Z,98818.78
2022-10-24T04:02:10.815Z,98816.81
2022-10-24T04:04:37.439Z,98816.44
2022-10-24T04:07:05.819Z,98836.19
2022-10-24T04:09:32.512Z,98833.41
2022-10-24T04:11:59.285Z,98839.34
2022-10-24T04:14:25.885Z,98836.19
2022-10-24T04:16:52.483Z,98840.56
2022-10-24T04:19:19.254Z,98836.19
2022-10-24T04:21:47.956Z,98838.56
2022-10-24T04:24:15.463Z,98843.34
2022-10-24T04:26:42.479Z,98847.66
2022-10-24T04:29:09.074Z,98847.66
2022-10-24T04:31:35.739Z,98856.75
2022-10-24T04:34:02.391Z,98847.28
2022-10-24T04:36:29.131Z,98848.06
2022-10-24T04:38:56.400Z,98844.91
2022-10-24T04:41:23.208Z,98846.13
2022-10-24T04:43:49.834Z,98850.88
2022-10-24T04:46:16.495Z,98841.78
2022-10-24T04:48:43.110Z,98846.94
2022-10-24T04:51:09.783Z,98848.94
2022-10-24T04:53:36.653Z,98845.78
2022-10-24T04:56:03.638Z,98847.75
2022-10-24T04:58:30.313Z,98855.25
2022-10-24T05:00:57.145Z,98857.66
2022-10-24T05:03:23.868Z,98857.66
2022-10-24T05:05:50.674Z,98856.09
2022-10-24T05:08:18.263Z,98846.56
2022-10-24T05:10:45.741Z,98860.84
2022-10-24T05:13:12.485Z,98859.63
2022-10-24T05:15:39.177Z,98867.56
2022-10-24T05:18:06.178Z,98863.59
2022-10-24T05:20:32.968Z,98863.22
2022-10-24T05:22:59.678Z,98867.16
2022-10-24T05:25:26.439Z,98867.94
2022-10-24T05:27:53.099Z,98867.16
2022-10-24T05:30:19.887Z,98875.44
2022-10-24T05:32:47.072Z,98873.47
2022-10-24T05:35:15.329Z,98877.03
2022-10-24T05:37:43.384Z,98879.00
2022-10-24T05:40:11.470Z,98877.44
2022-10-24T05:42:38.813Z,98876.66
2022-10-24T05:45:10.488Z,98879.78
2022-10-24T05:47:37.531Z,98878.59
2022-10-24T05:50:05.618Z,98879.00
2022-10-24T05:52:32.774Z,98877.41
2022-10-24T05:55:07.745Z,98880.56
2022-10-24T05:57:35.709Z,98887.72
2022-10-24T06:00:02.489Z,98888.09
2022-10-24T06:02:29.319Z,98883.34
2022-10-24T06:04:57.162Z,98894.41
2022-10-24T06:07:23.838Z,98892.41
2022-10-24T06:09:50.667Z,98887.69
2022-10-24T06:12:17.507Z,98885.69
2022-10-24T06:14:44.787Z,98886.88
2022-10-24T06:17:12.161Z,98901.91
2022-10-24T06:19:39.578Z,98897.16
2022-10-24T06:22:07.453Z,98900.69
2022-10-24T06:24:36.872Z,98893.16
2022-10-24T06:27:04.361Z,98899.47
2022-10-24T06:29:31.002Z,98906.19
2022-10-24T06:31:58.334Z,98909.75
2022-10-24T06:34:25.102Z,98921.66
2022-10-24T06:36:51.797Z,98909.00
2022-10-24T06:39:18.462Z,98921.66
2022-10-24T06:41:45.617Z,98912.19
2022-10-24T06:44:12.396Z,98910.19
2022-10-24T06:46:39.062Z,98915.34
2022-10-24T06:49:05.804Z,98916.13
2022-10-24T06:51:32.459Z,98920.50
2022-10-24T06:53:59.769Z,98916.53
2022-10-24T06:56:26.511Z,98916.56
2022-10-24T06:58:53.220Z,98914.59
2022-10-24T07:01:22.285Z,98905.88
2022-10-24T07:03:49.899Z,98919.34
2022-10-24T07:06:16.546Z,98916.97
2022-10-24T07:08:44.141Z,98926.47
2022-10-24T07:11:10.853Z,98926.06
2022-10-24T07:13:38.285Z,98922.94
2022-10-24T07:16:06.215Z,98929.25
2022-10-24T07:18:33.198Z,98932.78
2022-10-24T07:21:04.889Z,98935.97
2022-10-24T07:23:32.119Z,98947.03
2022-10-24T07:26:06.581Z,98940.31
2022-10-24T07:28:34.041Z,98945.47
2022-10-24T07:31:02.140Z,98947.47
2022-10-24T07:33:29.277Z,98952.59
2022-10-24T07:35:56.122Z,98953.41
2022-10-24T07:38:23.305Z,98949.44
2022-10-24T07:40:50.074Z,98957.00
2022-10-24T07:43:17.847Z,98970.03
2022-10-24T07:45:49.130Z,98963.75
2022-10-24T07:48:18.869Z,98964.53
2022-10-24T07:50:47.054Z,98967.72
2022-10-24T07:53:14.556Z,98972.47
2022-10-24T07:55:43.154Z,98969.31
2022-10-24T07:58:11.356Z,98966.94
2022-10-24T08:00:42.525Z,98978.44
2022-10-24T08:03:11.620Z,98983.59
2022-10-24T08:05:40.465Z,98985.97
2022-10-24T08:10:54.014Z,98989.94
2022-10-24T08:13:20.775Z,98993.88
2022-10-24T08:15:47.385Z,99001.03
2022-10-24T08:18:14.147Z,98996.25
2022-10-24T08:20:41.139Z,98998.63
2022-10-24T08:23:07.812Z,99008.53
2022-10-24T08:25:34.565Z,99007.34
2022-10-24T08:28:03.965Z,99012.88
2022-10-24T08:30:33.392Z,99016.44
2022-10-24T08:33:00.044Z,99028.72
2022-10-24T08:35:26.701Z,99023.97
2022-10-24T08:37:53.342Z,99033.06
2022-10-24T08:40:20.948Z,99037.41
2022-10-24T08:42:48.879Z,99035.03
2022-10-24T08:45:39.114Z,99034.28
2022-10-24T08:48:09.959Z,99037.03
2022-10-24T08:50:40.108Z,99048.13
2022-10-24T08:53:12.613Z,99044.94
2022-10-24T08:55:49.399Z,99048.53
2022-10-24T08:58:20.287Z,99055.63
2022-10-24T09:00:50.344Z,99066.72
2022-10-24T09:03:43.910Z,99061.97
2022-10-24T09:06:22.291Z,99074.66
2022-10-24T09:08:55.881Z,99069.91
2022-10-24T09:11:51.655Z,99069.91
2022-10-24T09:14:23.932Z,99071.09
2022-10-24T09:16:58.921Z,99077.84
2022-10-24T09:19:28.444Z,99083.00
2022-10-24T09:21:58.013Z,99085.78
2022-10-24T09:24:44.679Z,99089.34
2022-10-24T09:27:36.288Z,99092.13
2022-10-24T09:30:05.395Z,99096.50
2022-10-24T09:32:35.014Z,99100.44
2022-10-24T09:35:06.791Z,99098.50
2022-10-24T09:37:41.222Z,99086.66
2022-10-24T09:40:30.210Z,99098.16
2022-10-24T09:43:22.829Z,99098.56
2022-10-24T09:45:52.525Z,99100.13
2022-10-24T09:48:29.456Z,99101.75
2022-10-24T09:50:58.835Z,99100.94
2022-10-24T09:53:30.434Z,99099.78
2022-10-24T09:56:07.449Z,99112.84
2022-10-24T09:58:34.340Z,99106.13
2022-10-24T10:01:18.297Z,99118.00
2022-10-24T10:04:06.099Z,99120.78
2022-10-24T10:06:35.462Z,99117.63
2022-10-24T10:09:02.188Z,99124.75
2022-10-24T10:11:35.175Z,99119.59
2022-10-24T10:14:28.629Z,99127.16
2022-10-24T10:17:05.490Z,99128.72
2022-10-24T10:19:37.195Z,99132.28
2022-10-24T10:22:20.741Z,99127.91
2022-10-24T10:24:47.907Z,99123.97
2022-10-24T10:27:37.975Z,99120.78
2022-10-24T10:30:15.163Z,99121.56
2022-10-24T10:33:03.729Z,99136.59
2022-10-24T10:35:33.317Z,99131.03
2022-10-24T10:38:08.744Z,99138.94
2022-10-24T10:40:44.535Z,99142.94
2022-10-24T10:43:11.699Z,99151.66
2022-10-24T10:46:04.356Z,99152.06
2022-10-24T10:48:36.088Z,99149.28
2022-10-24T10:51:08.661Z,99154.06
2022-10-24T10:53:43.542Z,99153.22
2022-10-24T10:56:18.588Z,99161.16
2022-10-24T10:59:17.527Z,99160.34
2022-10-24T11:02:21.170Z,99163.09
2022-10-24T11:04:57.477Z,99160.69
2022-10-24T11:07:29.976Z,99165.03
2022-10-24T11:09:59.990Z,99159.47
2022-10-24T11:12:40.039Z,99163.44
2022-10-24T11:17:58.747Z,99165.78
2022-10-24T11:20:31.335Z,99168.16
2022-10-24T11:23:09.867Z,99174.47
2022-10-24T11:25:54.473Z,99172.88
2022-10-24T11:28:25.091Z,99172.84
2022-10-24T11:31:02.081Z,99174.78
2022-10-24T11:33:36.018Z,99172.41
2022-10-24T11:36:23.216Z,99173.97
2022-10-24T11:39:21.271Z,99179.06
2022-10-24T11:41:50.216Z,99175.09
2022-10-24T11:44:40.063Z,99164.34
2022-10-24T11:47:24.967Z,99162.78
2022-10-24T11:50:25.647Z,99174.69
2022-10-24T11:53:12.728Z,99163.97
2022-10-24T11:55:47.965Z,99168.75
2022-10-24T11:58:19.823Z,99175.06
2022-10-24T12:01:00.178Z,99185.38
2022-10-24T12:03:36.806Z,99185.31
2022-10-24T12:06:28.099Z,99168.47
2022-10-24T12:09:09.700Z,99170.28
2022-10-24T12:11:54.769Z,99173.75
2022-10-24T12:14:27.429Z,99172.84
2022-10-24T12:17:15.937Z,99164.31
2022-10-24T12:19:45.601Z,99168.25
2022-10-24T12:22:21.925Z,99179.41
2022-10-24T12:24:48.855Z,99174.66
2022-10-24T12:27:21.239Z,99171.50
2022-10-24T12:30:02.761Z,99174.34
2022-10-24T12:32:46.414Z,99183.19
2022-10-24T12:35:36.222Z,99186.53
2022-10-24T12:38:16.174Z,99179.09
2022-10-24T12:40:57.745Z,99198.66
2022-10-24T12:43:34.924Z,99196.31
2022-10-24T12:46:22.699Z,99190.75
2022-10-24T12:48:58.521Z,99199.91
2022-10-24T12:51:33.942Z,99203.50
2022-10-24T12:54:12.791Z,99198.72
2022-10-24T12:57:02.199Z,99201.81
2022-10-24T12:59:33.717Z,99202.63
2022-10-24T13:02:15.845Z,99203.06
2022-10-24T13:04:45.443Z,99203.13
2022-10-24T13:07:39.790Z,99204.72
2022-10-24T13:10:33.421Z,99213.84
2022-10-24T13:13:26.708Z,99204.25
2022-10-24T13:16:02.199Z,99205.81
2022-10-24T13:18:40.887Z,99201.78
2022-10-24T13:21:15.143Z,99186.59
2022-10-24T13:23:45.642Z,99194.56
2022-10-24T13:26:55.745Z,99192.97
2022-10-24T13:29:28.248Z,99195.31
2022-10-24T13:32:18.606Z,99192.44
2022-10-24T13:34:50.510Z,99197.50
2022-10-24T13:37:17.241Z,99195.97
2022-10-24T13:39:51.968Z,99195.22
2022-10-24T13:42:40.332Z,99200.81
2022-10-24T13:45:30.752Z,99201.28
2022-10-24T13:48:07.228Z,99194.56
2022-10-24T13:50:38.980Z,99204.16
2022-10-24T13:53:14.834Z,99201.06
2022-10-24T13:55:47.976Z,99201.94
2022-10-24T13:58:23.079Z,99208.34
2022-10-24T14:00:57.929Z,99213.56
2022-10-24T14:03:28.555Z,99212.03
2022-10-24T14:06:01.441Z,99215.66
2022-10-24T14:08:37.040Z,99212.09
2022-10-24T14:11:12.462Z,99202.19
2022-10-24T14:13:45.643Z,99198.28
2022-10-24T14:16:12.998Z,99204.22
2022-10-24T14:18:41.454Z,99210.16
2022-10-24T14:21:20.989Z,99205.66
2022-10-24T14:23:59.023Z,99205.66
2022-10-24T14:26:26.131Z,99208.50
2022-10-24T14:28:59.994Z,99204.53
2022-10-24T14:31:35.153Z,99220.47
2022-10-24T14:34:06.206Z,99217.31
2022-10-24T14:36:38.087Z,99228.09
2022-10-24T14:39:05.882Z,99222.16
2022-10-24T14:41:39.536Z,99222.94
2022-10-24T14:44:07.738Z,99221.75
2022-10-24T14:46:37.593Z,99222.91
2022-10-24T14:49:36.826Z,99229.59
2022-10-24T14:52:20.644Z,99222.47
2022-10-24T14:55:16.668Z,99228.09
2022-10-24T14:57:49.225Z,99227.38
2022-10-24T15:00:21.500Z,99233.34
2022-10-24T15:02:51.307Z,99225.44
2022-10-24T15:05:20.713Z,99226.63
2022-10-24T15:08:09.242Z,99233.78
2022-10-24T15:10:39.715Z,99232.22
2022-10-24T15:13:12.270Z,99235.78
2022-10-24T15:15:55.243Z,99234.59
2022-10-24T15:18:34.642Z,99239.78
2022-10-24T15:21:06.508Z,99238.97
2022-10-24T15:23:36.710Z,99236.63
2022-10-24T15:26:12.478Z,99238.22
2022-10-24T15:28:46.161Z,99232.66
2022-10-24T15:31:14.863Z,99243.34
2022-10-24T15:33:41.658Z,99249.31
2022-10-24T15:36:17.397Z,99257.66
2022-10-24T15:38:44.100Z,99247.72
2022-10-24T15:41:10.864Z,99253.69
2022-10-24T15:43:37.475Z,99251.69
2022-10-24T15:46:04.196Z,99258.84
2022-10-24T15:48:30.783Z,99254.47
2022-10-24T15:50:58.445Z,99269.16
2022-10-24T15:53:25.117Z,99268.38
2022-10-24T15:55:51.764Z,99274.34
2022-10-24T15:58:18.658Z,99275.50
2022-10-24T16:00:45.813Z,99285.84
2022-10-24T16:03:32.782Z,99271.53
2022-10-24T16:05:59.682Z,99278.31
2022-10-24T16:08:26.363Z,99291.41
2022-10-24T16:10:53.529Z,99286.25
2022-10-24T16:13:22.071Z,99283.47
2022-10-24T16:15:49.210Z,99294.19
2022-10-24T16:18:17.162Z,99286.63
2022-10-24T16:20:44.099Z,99293.34
2022-10-24T16:23:13.864Z,99294.94
2022-10-24T16:25:40.570Z,99299.31
2022-10-24T16:28:08.197Z,99304.47
2022-10-24T16:30:38.041Z,99291.38
2022-10-24T16:33:05.721Z,99302.50
2022-10-24T16:35:35.758Z,99296.13
2022-10-24T16:38:03.853Z,99299.69
2022-10-24T16:40:31.678Z,99310.00
2022-10-24T16:42:59.896Z,99323.09
2022-10-24T16:45:26.926Z,99323.09
2022-10-24T16:47:54.453Z,99326.25
2022-10-24T16:50:24.779Z,99319.13
2022-10-24T16:52:56.678Z,99327.81
2022-10-24T16:55:23.428Z,99314.72
2022-10-24T16:57:50.364Z,99322.25
2022-10-24T17:00:19.711Z,99330.16
2022-10-24T17:02:50.948Z,99337.72
2022-10-24T17:05:23.739Z,99332.13
2022-10-24T17:07:50.683Z,99339.66
2022-10-24T17:10:20.738Z,99345.19
2022-10-24T17:12:50.945Z,99345.97
2022-10-24T17:15:22.146Z,99352.31
2022-10-24T17:17:49.796Z,99361.78
2022-10-24T17:20:17.464Z,99363.75
2022-10-24T17:22:45.684Z,99367.31
2022-10-24T17:25:21.760Z,99367.69
2022-10-24T17:27:49.586Z,99368.03
2022-10-24T17:30:22.217Z,99381.91
2022-10-24T17:32:49.683Z,99388.25
2022-10-24T17:35:20.643Z,99381.88
2022-10-24T17:37:56.175Z,99380.69
2022-10-24T17:40:27.973Z,99394.53
2022-10-24T17:42:54.808Z,99401.66
2022-10-24T17:45:24.961Z,99396.09
2022-10-24T17:47:51.768Z,99402.00
2022-10-24T17:50:19.080Z,99404.38
2022-10-24T17:52:50.986Z,99409.13
2022-10-24T17:55:44.533Z,99410.69
2022-10-24T17:58:10.978Z,99406.34
2022-10-24T18:00:38.235Z,99414.22
2022-10-24T18:03:05.289Z,99415.44
2022-10-24T18:05:37.446Z,99424.91
2022-10-24T18:08:04.886Z,99418.97
2022-10-24T18:10:31.684Z,99418.56
2022-10-24T18:15:25.960Z,99440.75
2022-10-24T18:17:52.568Z,99428.06
2022-10-24T18:20:19.586Z,99440.31
2022-10-24T18:22:46.630Z,99445.84
2022-10-24T18:25:18.786Z,99444.28
2022-10-24T18:27:48.707Z,99451.00
2022-10-24T18:30:15.390Z,99454.13
2022-10-24T18:32:42.140Z,99462.47
2022-10-24T18:35:09.115Z,99466.41
2022-10-24T18:37:35.907Z,99458.47
2022-10-24T18:40:04.909Z,99466.78
2022-10-24T18:42:52.288Z,99465.19
2022-10-24T18:45:23.475Z,99470.72
2022-10-24T18:47:51.214Z,99470.72
2022-10-24T18:50:20.858Z,99471.53
2022-10-24T18:53:21.486Z,99471.13
2022-10-24T18:55:49.495Z,99478.63
2022-10-24T18:58:19.578Z,99473.09
2022-10-24T19:00:47.570Z,99477.84
2022-10-24T19:03:19.473Z,99484.13
2022-10-24T19:05:56.951Z,99488.88
2022-10-24T19:08:25.407Z,99496.00
2022-10-24T19:10:55.211Z,99489.66
2022-10-24T19:13:26.819Z,99490.03
2022-10-24T19:16:05.897Z,99497.19
2022-10-24T19:18:37.145Z,99492.00
2022-10-24T19:21:07.130Z,99491.19
2022-10-24T19:23:34.289Z,99503.84
2022-10-24T19:26:00.905Z,99492.78
2022-10-24T19:28:27.561Z,99504.25
2022-10-24T19:30:54.475Z,99508.63
2022-10-24T19:33:25.133Z,99505.41
2022-10-24T19:35:51.859Z,99516.47
2022-10-24T19:38:19.394Z,99513.72
2022-10-24T19:40:51.530Z,99516.47
2022-10-24T19:43:18.483Z,99519.63
2022-10-24T19:45:50.139Z,99511.69
2022-10-24T19:48:23.182Z,99525.16
2022-10-24T19:50:50.308Z,99507.72
2022-10-24T19:53:17.576Z,99525.16
2022-10-24T19:55:44.495Z,99534.63
2022-10-24T19:58:12.741Z,99527.47
2022-10-24T20:00:40.464Z,99524.28
2022-10-24T20:03:07.507Z,99544.84
2022-10-24T20:05:34.355Z,99536.94
2022-10-24T20:08:01.069Z,99544.09
2022-10-24T20:10:27.865Z,99539.31
2022-10-24T20:12:54.755Z,99544.84
2022-10-24T20:15:21.379Z,99550.41
2022-10-24T20:17:48.090Z,99548.81
2022-10-24T20:20:14.792Z,99548.81
2022-10-24T20:22:41.610Z,99556.34
2022-10-24T20:25:08.349Z,99563.84
2022-10-24T20:27:38.844Z,99571.78
2022-10-24T20:30:06.104Z,99572.16
2022-10-24T20:32:32.813Z,99565.44
2022-10-24T20:34:59.550Z,99563.09
2022-10-24T20:37:26.300Z,99570.66
2022-10-24T20:39:53.017Z,99581.72
2022-10-24T20:42:20.919Z,99582.09
2022-10-24T20:44:47.942Z,99585.25
2022-10-24T20:47:14.659Z,99578.91
2022-10-24T20:49:41.298Z,99588.41
2022-10-24T20:52:08.014Z,99590.75
2022-10-24T20:54:34.739Z,99586.00
2022-10-24T20:57:01.393Z,99594.72
2022-10-24T20:59:28.056Z,99593.09
2022-10-24T21:01:54.892Z,99599.44
2022-10-24T21:04:21.680Z,99595.50
2022-10-24T21:06:48.487Z,99604.25
2022-10-24T21:09:17.297Z,99611.47
2022-10-24T21:11:43.981Z,99612.28
2022-10-24T21:14:13.522Z,99621.00
2022-10-24T21:16:40.448Z,99611.53
2022-10-24T21:19:07.114Z,99614.31
2022-10-24T21:21:33.726Z,99623.44
2022-10-24T21:24:05.769Z,99628.16
2022-10-24T21:26:38.670Z,99634.50
2022-10-24T21:29:15.072Z,99632.09
2022-10-24T21:31:52.279Z,99636.47
2022-10-24T21:34:19.219Z,99642.03
2022-10-24T21:36:45.991Z,99642.41
2022-10-24T21:39:14.503Z,99645.13
2022-10-24T21:41:41.575Z,99651.44
2022-10-24T21:44:08.379Z,99651.00
2022-10-24T21:46:35.057Z,99658.16
2022-10-24T21:49:01.792Z,99647.06
2022-10-24T21:51:32.777Z,99649.41
2022-10-24T21:54:05.149Z,99668.78
2022-10-24T21:56:35.252Z,99657.63
2022-10-24T21:59:04.814Z,99663.56
2022-10-24T22:01:36.580Z,99669.84
2022-10-24T22:04:04.904Z,99676.16
2022-10-24T22:06:35.361Z,99678.84
2022-10-24T22:09:03.375Z,99672.09
2022-10-24T22:11:31.290Z,99681.56
2022-10-24T22:13:58.338Z,99677.56
2022-10-24T22:16:27.555Z,99691.81
2022-10-24T22:18:54.713Z,99694.97
2022-10-24T22:21:39.340Z,99696.94
2022-10-24T22:24:08.919Z,99697.28
2022-10-24T22:26:37.000Z,99694.09
2022-10-24T22:29:05.202Z,99694.84
2022-10-24T22:31:32.154Z,99702.75
2022-10-24T22:33:59.268Z,99701.50
2022-10-24T22:36:47.243Z,99704.66
2022-10-24T22:39:24.426Z,99707.00
2022-10-24T22:41:51.851Z,99710.56
2022-10-24T22:44:23.177Z,99713.72
2022-10-24T22:46:49.745Z,99715.25
2022-10-24T22:49:29.755Z,99720.72
2022-10-24T22:51:56.680Z,99717.97
2022-10-24T22:54:24.646Z,99724.66
2022-10-24T22:56:51.761Z,99734.50
2022-10-24T22:59:18.760Z,99720.25
2022-10-24T23:01:48.406Z,99739.63
2022-10-24T23:04:29.970Z,99732.88
2022-10-24T23:07:07.622Z,99745.09
2022-10-24T23:09:34.239Z,99749.88
2022-10-24T23:12:01.146Z,99751.81
2022-10-24T23:14:28.068Z,99747.44
2022-10-24T23:16:59.539Z,99741.91
2022-10-24T23:19:27.858Z,99740.34
2022-10-24T23:22:00.499Z,99744.25
2022-10-24T23:24:28.517Z,99757.28
2022-10-24T23:27:04.207Z,99752.91
2022-10-24T23:29:33.409Z,99751.69
2022-10-24T23:32:00.999Z,99752.88
2022-10-24T23:34:28.178Z,99758.75
2022-10-24T23:36:59.773Z,99759.16
2022-10-24T23:39:32.778Z,99763.06
2022-10-24T23:42:00.736Z,99756.75
2022-10-24T23:44:27.781Z,99761.50
2022-10-24T23:47:17.099Z,99765.41
2022-10-24T23:49:56.697Z,99763.03
2022-10-24T23:52:35.738Z,99778.84
2022-10-24T23:55:02.633Z,99766.16
2022-10-24T23:57:29.441Z,99780.38
2022-10-24T23:59:56.096Z,99776.38
